createdAt,value
2023-03-18T00:00:19.303Z,99457.00
2023-03-18T00:02:48.242Z,99464.00
2023-03-18T00:05:16.172Z,99473.00
2023-03-18T00:07:44.007Z,99473.00
2023-03-18T00:10:12.404Z,99463.00
2023-03-18T00:12:40.557Z,99468.00
2023-03-18T00:15:09.028Z,99470.00
2023-03-18T00:17:38.070Z,99471.00
2023-03-18T00:20:07.114Z,99472.00
2023-03-18T00:22:36.065Z,99468.00
2023-03-18T00:25:04.617Z,99460.00
2023-03-18T00:27:32.466Z,99466.00
2023-03-18T00:30:00.101Z,99476.00
2023-03-18T00:32:28.146Z,99470.00
2023-03-18T00:34:57.083Z,99475.00
2023-03-18T00:37:31.190Z,99470.00
2023-03-18T00:40:06.515Z,99477.00
2023-03-18T00:42:47.700Z,99478.00
2023-03-18T00:45:16.552Z,99482.00
2023-03-18T00:47:44.666Z,99476.00
2023-03-18T00:50:12.749Z,99476.00
2023-03-18T00:52:41.409Z,99474.00
2023-03-18T00:55:09.180Z,99480.00
2023-03-18T00:57:37.260Z,99492.00
2023-03-18T01:00:07.489Z,99484.00
2023-03-18T01:02:39.135Z,99482.00
2023-03-18T01:05:07.263Z,99488.00
2023-03-18T01:07:34.828Z,99480.00
2023-03-18T01:10:02.630Z,99485.00
2023-03-18T01:12:30.577Z,99484.00
2023-03-18T01:14:59.399Z,99484.00
2023-03-18T01:17:27.247Z,99473.00
2023-03-18T01:19:55.376Z,99482.00
2023-03-18T01:22:24.649Z,99484.00
2023-03-18T01:24:52.746Z,99482.00
2023-03-18T01:27:27.255Z,99488.00
2023-03-18T01:29:55.658Z,99485.00
2023-03-18T01:32:24.362Z,99493.00
2023-03-18T01:34:52.382Z,99497.00
2023-03-18T01:37:20.074Z,99495.00
2023-03-18T01:39:51.146Z,99490.00
2023-03-18T01:42:23.185Z,99491.00
2023-03-18T01:45:10.270Z,99496.00
2023-03-18T01:47:40.115Z,99489.00
2023-03-18T01:50:07.987Z,99500.00
2023-03-18T01:52:36.618Z,99490.00
2023-03-18T01:55:06.030Z,99497.00
2023-03-18T01:57:34.147Z,99491.00
2023-03-18T02:00:02.277Z,99501.00
2023-03-18T04:48:54.570Z,99580.00
2023-03-18T04:51:23.221Z,99577.00
2023-03-18T04:53:51.690Z,99577.00
2023-03-18T04:56:19.905Z,99576.00
2023-03-18T04:58:51.366Z,99582.00
2023-03-18T05:05:05.831Z,99585.00
2023-03-18T05:07:38.459Z,99581.00
2023-03-18T05:10:11.719Z,99581.00
2023-03-18T05:12:39.758Z,99579.00
2023-03-18T05:15:11.878Z,99582.00
2023-03-18T05:17:43.851Z,99576.00
2023-03-18T05:20:13.528Z,99586.00
2023-03-18T05:22:43.187Z,99581.00
2023-03-18T05:25:17.234Z,99581.00
2023-03-18T05:27:44.837Z,99572.00
2023-03-18T05:30:20.861Z,99584.00
2023-03-18T05:32:51.700Z,99581.00
2023-03-18T05:35:22.233Z,99585.00
2023-03-18T05:37:52.462Z,99584.00
2023-03-18T05:40:21.736Z,99585.00
2023-03-18T05:43:03.245Z,99581.00
2023-03-18T05:45:47.262Z,99574.00
2023-03-18T05:48:17.946Z,99581.00
2023-03-18T05:50:53.032Z,99583.00
2023-03-18T05:53:27.927Z,99591.00
2023-03-18T05:56:05.639Z,99590.00
2023-03-18T05:58:34.592Z,99593.00
2023-03-18T06:01:28.326Z,99590.00
2023-03-18T06:03:56.220Z,99594.00
2023-03-18T06:06:23.954Z,99600.00
2023-03-18T06:08:51.894Z,99583.00
2023-03-18T06:11:19.909Z,99592.00
2023-03-18T06:13:50.014Z,99594.00
2023-03-18T06:16:18.010Z,99589.00
2023-03-18T06:18:46.098Z,99589.00
2023-03-18T06:21:15.905Z,99593.00
2023-03-18T06:23:43.790Z,99592.00
2023-03-18T06:26:12.742Z,99600.00
2023-03-18T06:28:47.306Z,99600.00
2023-03-18T06:31:17.303Z,99605.00
2023-03-18T06:33:45.356Z,99606.00
2023-03-18T06:36:16.926Z,99597.00
2023-03-18T06:38:51.066Z,99607.00
2023-03-18T06:41:20.759Z,99613.00
2023-03-18T06:44:08.582Z,99609.00
2023-03-18T06:46:36.444Z,99616.00
2023-03-18T06:49:05.826Z,99620.00
2023-03-18T06:51:38.228Z,99619.00
2023-03-18T06:54:05.973Z,99617.00
2023-03-18T06:56:41.937Z,99619.00
2023-03-18T06:59:17.856Z,99624.00
2023-03-18T07:01:46.685Z,99625.00
2023-03-18T07:04:17.779Z,99615.00
2023-03-18T07:06:45.800Z,99627.00
2023-03-18T07:09:15.374Z,99634.00
2023-03-18T07:11:45.974Z,99644.00
2023-03-18T07:14:18.515Z,99650.00
2023-03-18T07:16:46.813Z,99645.00
2023-03-18T07:19:17.963Z,99648.00
2023-03-18T07:21:49.849Z,99661.00
2023-03-18T07:24:17.760Z,99655.00
2023-03-18T07:26:45.816Z,99654.00
2023-03-18T07:29:13.591Z,99658.00
2023-03-18T07:31:41.744Z,99656.00
2023-03-18T07:34:10.757Z,99656.00
2023-03-18T07:36:38.499Z,99662.00
2023-03-18T07:39:06.501Z,99664.00
2023-03-18T07:41:36.574Z,99676.00
2023-03-18T07:44:06.984Z,99669.00
2023-03-18T07:46:34.993Z,99664.00
2023-03-18T07:49:02.783Z,99667.00
2023-03-18T07:51:30.631Z,99673.00
2023-03-18T07:53:58.796Z,99676.00
2023-03-18T07:56:27.387Z,99686.00
2023-03-18T07:58:54.969Z,99684.00
2023-03-18T08:01:22.829Z,99682.00
2023-03-18T08:03:50.841Z,99692.00
2023-03-18T08:06:20.572Z,99694.00
2023-03-18T08:08:49.647Z,99695.00
2023-03-18T08:11:17.461Z,99692.00
2023-03-18T08:13:45.221Z,99690.00
2023-03-18T08:16:13.745Z,99698.00
2023-03-18T08:18:42.245Z,99707.00
2023-03-18T08:21:09.958Z,99701.00
2023-03-18T08:23:38.067Z,99705.00
2023-03-18T08:26:05.793Z,99709.00
2023-03-18T08:28:33.456Z,99712.00
2023-03-18T08:31:01.455Z,99716.00
2023-03-18T08:33:29.242Z,99712.00
2023-03-18T08:35:58.139Z,99722.00
2023-03-18T08:38:25.894Z,99720.00
2023-03-18T08:40:53.516Z,99718.00
2023-03-18T08:43:23.766Z,99722.00
2023-03-18T08:45:52.819Z,99726.00
2023-03-18T08:48:21.193Z,99718.00
2023-03-18T08:50:49.109Z,99724.00
2023-03-18T08:53:16.811Z,99732.00
2023-03-18T08:55:44.802Z,99722.00
2023-03-18T08:58:12.532Z,99725.00
2023-03-18T09:00:42.084Z,99727.00
2023-03-18T09:03:10.274Z,99731.00
2023-03-18T09:05:38.812Z,99730.00
2023-03-18T09:08:06.797Z,99726.00
2023-03-18T09:10:34.481Z,99729.00
2023-03-18T09:13:02.072Z,99732.00
2023-03-18T09:15:29.877Z,99720.00
2023-03-18T09:18:10.988Z,99734.00
2023-03-18T09:20:40.946Z,99731.00
2023-03-18T09:23:09.187Z,99737.00
2023-03-18T09:25:36.964Z,99726.00
2023-03-18T09:28:04.724Z,99726.00
2023-03-18T09:30:32.824Z,99725.00
2023-03-18T09:33:00.579Z,99739.00
2023-03-18T09:35:29.341Z,99735.00
2023-03-18T09:37:57.562Z,99739.00
2023-03-18T09:40:27.096Z,99739.00
2023-03-18T09:43:15.982Z,99736.00
2023-03-18T09:45:44.939Z,99741.00
2023-03-18T09:48:38.857Z,99744.00
2023-03-18T09:51:28.878Z,99743.00
2023-03-18T09:53:58.610Z,99748.00
2023-03-18T09:56:27.246Z,99743.00
2023-03-18T09:59:03.688Z,99745.00
2023-03-18T10:01:32.350Z,99750.00
2023-03-18T10:04:02.178Z,99746.00
2023-03-18T10:06:29.951Z,99752.00
2023-03-18T10:08:57.637Z,99755.00
2023-03-18T10:11:32.820Z,99763.00
2023-03-18T10:14:12.314Z,99766.00
2023-03-18T10:17:00.214Z,99771.00
2023-03-18T10:19:29.160Z,99767.00
2023-03-18T10:22:03.098Z,99769.00
2023-03-18T10:24:38.717Z,99769.00
2023-03-18T10:27:25.382Z,99770.00
2023-03-18T10:29:58.926Z,99776.00
2023-03-18T10:32:42.608Z,99771.00
2023-03-18T10:35:27.075Z,99771.00
2023-03-18T10:37:58.277Z,99772.00
2023-03-18T10:40:27.403Z,99773.00
2023-03-18T10:42:56.669Z,99772.00
2023-03-18T10:45:34.445Z,99771.00
2023-03-18T10:48:06.203Z,99779.00
2023-03-18T10:50:38.483Z,99775.00
2023-03-18T10:53:24.119Z,99778.00
2023-03-18T10:55:57.408Z,99780.00
2023-03-18T10:58:25.568Z,99783.00
2023-03-18T11:00:53.355Z,99780.00
2023-03-18T11:03:25.290Z,99786.00
2023-03-18T11:05:53.525Z,99787.00
2023-03-18T11:08:35.133Z,99789.00
2023-03-18T11:11:23.296Z,99786.00
2023-03-18T11:13:53.247Z,99777.00
2023-03-18T11:16:26.380Z,99786.00
2023-03-18T11:18:54.851Z,99786.00
2023-03-18T11:21:23.968Z,99786.00
2023-03-18T11:24:24.616Z,99787.00
2023-03-18T11:26:56.217Z,99797.00
2023-03-18T11:29:27.411Z,99786.00
2023-03-18T11:31:58.589Z,99791.00
2023-03-18T11:34:27.366Z,99784.00
2023-03-18T11:37:01.294Z,99778.00
2023-03-18T11:39:31.193Z,99788.00
2023-03-18T11:42:00.372Z,99788.00
2023-03-18T11:44:29.322Z,99789.00
2023-03-18T11:47:01.706Z,99781.00
2023-03-18T11:49:29.805Z,99784.00
2023-03-18T11:51:58.146Z,99779.00
2023-03-18T11:54:25.746Z,99774.00
2023-03-18T11:56:58.431Z,99775.00
2023-03-18T11:59:29.208Z,99775.00
2023-03-18T12:02:20.151Z,99768.00
2023-03-18T12:04:49.123Z,99770.00
2023-03-18T12:07:30.584Z,99769.00
2023-03-18T12:10:05.778Z,99770.00
2023-03-18T12:12:39.832Z,99773.00
2023-03-18T12:15:11.764Z,99776.00
2023-03-18T12:17:49.529Z,99776.00
2023-03-18T12:20:35.992Z,99782.00
2023-03-18T12:23:04.764Z,99772.00
2023-03-18T12:25:36.052Z,99779.00
2023-03-18T12:28:07.815Z,99777.00
2023-03-18T12:30:41.631Z,99772.00
2023-03-18T12:33:11.046Z,99765.00
2023-03-18T12:35:57.508Z,99777.00
2023-03-18T12:38:31.539Z,99776.00
2023-03-18T12:41:02.184Z,99767.00
2023-03-18T12:43:39.074Z,99777.00
2023-03-18T12:46:20.336Z,99770.00
2023-03-18T12:49:08.329Z,99776.00
2023-03-18T12:51:48.544Z,99767.00
2023-03-18T12:54:18.627Z,99773.00
2023-03-18T12:56:46.223Z,99773.00
2023-03-18T12:59:19.708Z,99767.00
2023-03-18T13:01:57.757Z,99757.00
2023-03-18T13:04:27.211Z,99768.00
2023-03-18T13:06:57.567Z,99768.00
2023-03-18T13:09:34.833Z,99766.00
2023-03-18T13:12:09.460Z,99766.00
2023-03-18T13:14:44.953Z,99766.00
2023-03-18T13:17:33.228Z,99765.00
2023-03-18T13:20:01.339Z,99763.00
2023-03-18T13:22:46.368Z,99764.00
2023-03-18T13:25:19.005Z,99768.00
2023-03-18T13:27:52.400Z,99763.00
2023-03-18T13:30:28.846Z,99765.00
2023-03-18T13:33:05.811Z,99767.00
2023-03-18T13:35:39.375Z,99763.00
2023-03-18T13:38:17.757Z,99764.00
2023-03-18T13:40:52.633Z,99760.00
2023-03-18T13:43:20.686Z,99762.00
2023-03-18T13:45:49.903Z,99760.00
2023-03-18T13:48:18.572Z,99760.00
2023-03-18T13:50:47.123Z,99762.00
2023-03-18T13:53:17.966Z,99759.00
2023-03-18T13:55:51.787Z,99768.00
2023-03-18T13:58:21.844Z,99763.00
2023-03-18T14:00:55.713Z,99766.00
2023-03-18T14:03:53.127Z,99764.00
2023-03-18T14:06:39.686Z,99763.00
2023-03-18T14:09:42.736Z,99764.00
2023-03-18T14:12:17.538Z,99767.00
2023-03-18T14:14:48.363Z,99763.00
2023-03-18T14:17:17.390Z,99767.00
2023-03-18T14:19:45.386Z,99763.00
2023-03-18T14:22:19.941Z,99751.00
2023-03-18T14:24:48.158Z,99756.00
2023-03-18T14:27:17.391Z,99751.00
2023-03-18T14:29:46.221Z,99763.00
2023-03-18T14:32:23.099Z,99752.00
2023-03-18T14:34:53.889Z,99753.00
2023-03-18T14:37:26.228Z,99760.00
2023-03-18T14:39:55.240Z,99761.00
2023-03-18T14:42:38.467Z,99757.00
2023-03-18T14:45:10.280Z,99756.00
2023-03-18T14:47:39.646Z,99750.00
2023-03-18T14:50:08.549Z,99751.00
2023-03-18T14:52:37.788Z,99755.00
2023-03-18T14:55:09.067Z,99748.00
2023-03-18T14:57:36.873Z,99748.00
2023-03-18T15:00:07.175Z,99747.00
2023-03-18T15:02:35.305Z,99755.00
2023-03-18T15:05:03.052Z,99749.00
2023-03-18T15:07:35.420Z,99749.00
2023-03-18T15:10:04.762Z,99749.00
2023-03-18T15:12:32.602Z,99755.00
2023-03-18T15:15:00.404Z,99740.00
2023-03-18T15:17:28.079Z,99745.00
2023-03-18T15:20:00.106Z,99744.00
2023-03-18T15:22:30.923Z,99735.00
2023-03-18T15:25:02.628Z,99745.00
2023-03-18T15:27:31.417Z,99745.00
2023-03-18T15:29:59.818Z,99740.00
2023-03-18T15:32:44.576Z,99754.00
2023-03-18T15:35:24.521Z,99750.00
2023-03-18T15:38:16.770Z,99750.00
2023-03-18T15:40:52.746Z,99743.00
2023-03-18T15:43:29.015Z,99741.00
2023-03-18T15:46:00.429Z,99743.00
2023-03-18T15:48:35.223Z,99739.00
2023-03-18T15:51:05.670Z,99744.00
2023-03-18T15:53:44.979Z,99741.00
2023-03-18T15:56:13.620Z,99744.00
2023-03-18T15:58:41.511Z,99749.00
2023-03-18T16:01:10.361Z,99746.00
2023-03-18T16:03:38.269Z,99752.00
2023-03-18T16:06:05.991Z,99756.00
2023-03-18T16:08:33.889Z,99747.00
2023-03-18T16:11:02.202Z,99752.00
2023-03-18T16:13:31.891Z,99754.00
2023-03-18T16:16:00.500Z,99749.00
2023-03-18T16:18:28.496Z,99757.00
2023-03-18T16:20:57.607Z,99749.00
2023-03-18T16:23:25.330Z,99751.00
2023-03-18T16:25:53.383Z,99754.00
2023-03-18T16:28:22.272Z,99758.00
2023-03-18T16:30:52.284Z,99754.00
2023-03-18T16:33:20.226Z,99756.00
2023-03-18T16:36:01.862Z,99754.00
2023-03-18T16:38:30.366Z,99764.00
2023-03-18T16:40:58.412Z,99762.00
2023-03-18T16:43:27.539Z,99761.00
2023-03-18T16:45:58.026Z,99769.00
2023-03-18T16:48:25.919Z,99767.00
2023-03-18T16:50:56.785Z,99770.00
2023-03-18T16:53:26.330Z,99769.00
2023-03-18T16:56:17.276Z,99763.00
2023-03-18T16:58:45.620Z,99763.00
2023-03-18T17:01:17.153Z,99761.00
2023-03-18T17:03:45.891Z,99774.00
2023-03-18T17:06:13.875Z,99776.00
2023-03-18T17:08:42.353Z,99776.00
2023-03-18T17:11:13.576Z,99782.00
2023-03-18T17:13:41.330Z,99780.00
2023-03-18T17:16:15.795Z,99785.00
2023-03-18T17:18:43.672Z,99788.00
2023-03-18T17:21:12.356Z,99794.00
2023-03-18T17:23:41.137Z,99788.00
2023-03-18T17:26:11.589Z,99786.00
2023-03-18T17:28:39.987Z,99786.00
2023-03-18T17:31:07.877Z,99790.00
2023-03-18T17:33:36.272Z,99789.00
2023-03-18T17:36:05.078Z,99789.00
2023-03-18T17:38:34.965Z,99796.00
2023-03-18T17:41:04.398Z,99790.00
2023-03-18T17:43:32.909Z,99786.00
2023-03-18T17:46:01.172Z,99800.00
2023-03-18T17:48:29.708Z,99796.00
2023-03-18T17:51:01.223Z,99800.00
2023-03-18T17:53:35.312Z,99801.00
2023-03-18T17:56:04.933Z,99798.00
2023-03-18T17:58:34.091Z,99800.00
2023-03-18T18:01:05.896Z,99801.00
2023-03-18T18:03:35.012Z,99793.00
2023-03-18T18:06:03.635Z,99792.00
2023-03-18T18:08:32.036Z,99786.00
2023-03-18T18:11:15.279Z,99795.00
2023-03-18T18:13:43.549Z,99801.00
2023-03-18T18:16:11.592Z,99792.00
2023-03-18T18:18:40.178Z,99803.00
2023-03-18T18:21:12.098Z,99800.00
2023-03-18T18:23:40.313Z,99800.00
2023-03-18T18:26:08.958Z,99811.00
2023-03-18T18:28:43.311Z,99806.00
2023-03-18T18:31:11.607Z,99821.00
2023-03-18T18:33:39.901Z,99818.00
2023-03-18T18:36:08.610Z,99826.00
2023-03-18T18:38:36.418Z,99826.00
2023-03-18T18:41:04.414Z,99828.00
2023-03-18T18:43:32.363Z,99832.00
2023-03-18T18:46:00.237Z,99831.00
2023-03-18T18:48:27.768Z,99826.00
2023-03-18T18:50:55.405Z,99827.00
2023-03-18T18:53:27.276Z,99836.00
2023-03-18T18:55:56.234Z,99830.00
2023-03-18T18:58:26.907Z,99832.00
2023-03-18T19:00:54.829Z,99828.00
2023-03-18T19:03:25.065Z,99832.00
2023-03-18T19:05:53.840Z,99825.00
2023-03-18T19:08:22.896Z,99829.00
2023-03-18T19:10:57.672Z,99836.00
2023-03-18T19:13:25.841Z,99834.00
2023-03-18T19:15:54.230Z,99839.00
2023-03-18T19:18:25.922Z,99832.00
2023-03-18T19:20:53.711Z,99826.00
2023-03-18T19:23:28.430Z,99831.00
2023-03-18T19:25:56.393Z,99825.00
2023-03-18T19:28:47.758Z,99822.00
2023-03-18T19:31:20.161Z,99823.00
2023-03-18T19:33:50.825Z,99820.00
2023-03-18T19:36:27.744Z,99818.00
2023-03-18T19:38:55.727Z,99820.00
2023-03-18T19:41:23.705Z,99811.00
2023-03-18T19:43:51.458Z,99827.00
2023-03-18T19:46:20.172Z,99824.00
2023-03-18T19:48:47.963Z,99827.00
2023-03-18T19:51:16.102Z,99829.00
2023-03-18T19:53:44.927Z,99828.00
2023-03-18T19:56:24.368Z,99835.00
2023-03-18T19:58:53.375Z,99832.00
2023-03-18T20:01:22.275Z,99839.00
2023-03-18T20:03:51.198Z,99836.00
2023-03-18T20:06:18.998Z,99841.00
2023-03-18T20:08:46.798Z,99849.00
2023-03-18T20:11:15.795Z,99846.00
2023-03-18T20:13:43.848Z,99846.00
2023-03-18T20:16:13.161Z,99850.00
2023-03-18T20:18:41.440Z,99845.00
2023-03-18T20:21:35.834Z,99846.00
2023-03-18T20:24:04.637Z,99851.00
2023-03-18T20:26:32.237Z,99851.00
2023-03-18T20:28:59.941Z,99851.00
2023-03-18T20:31:29.970Z,99848.00
2023-03-18T20:33:57.705Z,99847.00
2023-03-18T20:36:25.377Z,99843.00
2023-03-18T20:38:53.008Z,99842.00
2023-03-18T20:41:21.059Z,99842.00
2023-03-18T20:43:50.366Z,99838.00
2023-03-18T20:46:18.058Z,99833.00
2023-03-18T20:48:46.185Z,99837.00
2023-03-18T20:51:21.350Z,99842.00
2023-03-18T20:53:50.025Z,99836.00
2023-03-18T20:56:22.686Z,99836.00
2023-03-18T20:58:50.613Z,99844.00
2023-03-18T21:01:18.496Z,99842.00
2023-03-18T21:03:46.247Z,99837.00
2023-03-18T21:06:14.879Z,99831.00
2023-03-18T21:08:43.390Z,99840.00
2023-03-18T21:11:18.860Z,99832.00
2023-03-18T21:13:46.389Z,99838.00
2023-03-18T21:16:15.121Z,99841.00
2023-03-18T21:18:45.612Z,99836.00
2023-03-18T21:21:33.857Z,99842.00
2023-03-18T21:24:01.938Z,99840.00
2023-03-18T21:26:29.828Z,99845.00
2023-03-18T21:28:57.806Z,99848.00
2023-03-18T21:31:27.279Z,99844.00
2023-03-18T21:33:57.674Z,99852.00
2023-03-18T21:36:26.232Z,99840.00
2023-03-18T21:38:53.806Z,99850.00
2023-03-18T21:41:22.503Z,99843.00
2023-03-18T21:43:50.156Z,99844.00
2023-03-18T21:46:19.069Z,99833.00
2023-03-18T21:48:47.083Z,99833.00
2023-03-18T21:51:31.760Z,99839.00
2023-03-18T21:54:05.738Z,99840.00
2023-03-18T21:56:33.888Z,99844.00
2023-03-18T21:59:01.871Z,99835.00
2023-03-18T22:01:32.390Z,99837.00
2023-03-18T22:04:00.074Z,99834.00
2023-03-18T22:06:27.746Z,99832.00
2023-03-18T22:08:57.536Z,99838.00
2023-03-18T22:11:25.039Z,99840.00
2023-03-18T22:13:54.839Z,99829.00
2023-03-18T22:16:22.746Z,99823.00
2023-03-18T22:18:51.514Z,99833.00
2023-03-18T22:21:25.587Z,99824.00
2023-03-18T22:23:53.324Z,99821.00
2023-03-18T22:26:21.356Z,99812.00
2023-03-18T22:28:50.771Z,99825.00
2023-03-18T22:31:25.720Z,99820.00
2023-03-18T22:33:53.632Z,99828.00
2023-03-18T22:36:25.874Z,99832.00
2023-03-18T22:38:53.547Z,99831.00
2023-03-18T22:41:24.981Z,99845.00
2023-03-18T22:43:52.729Z,99896.00
2023-03-18T22:46:20.560Z,99923.00
2023-03-18T22:48:48.404Z,99921.00
2023-03-18T22:51:19.676Z,99905.00
2023-03-18T22:53:48.168Z,99902.00
2023-03-18T22:56:16.400Z,99882.00
2023-03-18T22:58:44.489Z,99874.00
2023-03-18T23:01:23.568Z,99885.00
2023-03-18T23:03:51.340Z,99882.00
2023-03-18T23:06:20.299Z,99888.00
2023-03-18T23:08:48.300Z,99906.00
2023-03-18T23:11:16.777Z,99915.00
2023-03-18T23:13:46.474Z,99903.00
2023-03-18T23:16:15.824Z,99903.00
2023-03-18T23:18:43.773Z,99897.00
2023-03-18T23:21:21.482Z,99905.00
2023-03-18T23:23:49.556Z,99898.00
2023-03-18T23:26:18.246Z,99896.00
2023-03-18T23:28:46.089Z,99904.00
2023-03-18T23:31:14.809Z,99909.00
2023-03-18T23:33:42.984Z,99918.00
2023-03-18T23:36:11.199Z,99922.00
2023-03-18T23:38:39.216Z,99902.00
2023-03-18T23:41:07.375Z,99904.00
2023-03-18T23:43:35.284Z,99925.00
2023-03-18T23:46:04.002Z,99928.00
2023-03-18T23:48:31.837Z,99921.00
2023-03-18T23:50:59.458Z,99924.00
2023-03-18T23:53:27.556Z,99919.00
2023-03-18T23:55:55.596Z,99912.00
2023-03-18T23:58:23.410Z,99906.00
